Terminal Aerodrome Forecast
Issued by NWS Topeka, KS

Home | Current Version | Previous Version | Text Only | Print | Product List | Glossary Off
Versions: 1 2 3 4 5 6 7 8 9 10 11 12 13 14 15 16 17 18 19 20

000
FTUS43 KTOP 220224 AAC
TAFTOP
TAF AMD
KTOP 220224Z 2202/2224 32007KT 5SM RA VCTS SCT060CB BKN100
     FM220400 31007KT P6SM -SHRA BKN060
     FM220800 32010KT P6SM SCT200=

USA.gov is the U.S. government's official web portal to all federal, state and local government web resources and services.